createdAt,value
2019-05-21T00:01:31.669Z,4.80
2019-05-21T00:04:00.392Z,4.83
2019-05-21T00:06:29.117Z,5.00
2019-05-21T00:08:57.911Z,4.83
2019-05-21T00:11:26.643Z,5.37
2019-05-21T00:13:55.372Z,5.10
2019-05-21T00:16:26.179Z,5.70
2019-05-21T00:18:54.896Z,5.13
2019-05-21T00:21:23.615Z,5.20
2019-05-21T00:23:52.474Z,5.77
2019-05-21T00:26:21.200Z,5.77
2019-05-21T00:29:26.330Z,5.20
2019-05-21T00:32:31.268Z,5.13
2019-05-21T00:35:43.970Z,4.80
2019-05-21T00:38:51.901Z,5.13
2019-05-21T00:41:56.011Z,5.50
2019-05-21T00:44:25.783Z,5.00
2019-05-21T00:46:54.505Z,6.20
2019-05-21T00:49:23.365Z,5.97
2019-05-21T00:52:06.168Z,5.83
2019-05-21T00:54:22.644Z,6.33
2019-05-21T00:56:51.539Z,6.77
2019-05-21T00:59:20.256Z,6.80
2019-05-21T01:01:48.988Z,6.10
2019-05-21T01:04:17.808Z,6.27
2019-05-21T01:06:46.532Z,6.37
2019-05-21T01:09:15.261Z,6.70
2019-05-21T01:11:44.160Z,6.57
2019-05-21T01:14:12.884Z,6.73
2019-05-21T01:16:41.610Z,6.87
2019-05-21T01:19:10.484Z,5.80
2019-05-21T01:21:39.212Z,5.90
2019-05-21T01:24:07.935Z,5.80
2019-05-21T01:26:36.791Z,5.27
2019-05-21T01:29:05.812Z,5.10
2019-05-21T01:31:34.528Z,4.90
2019-05-21T01:34:03.423Z,5.30
2019-05-21T01:36:32.143Z,5.60
2019-05-21T01:39:00.868Z,5.13
2019-05-21T01:41:29.641Z,5.40
2019-05-21T01:43:58.364Z,5.40
2019-05-21T01:46:27.115Z,5.47
2019-05-21T01:48:56.055Z,5.90
2019-05-21T01:51:24.779Z,5.37
2019-05-21T01:53:53.490Z,5.60
2019-05-21T01:56:22.248Z,7.50
2019-05-21T01:58:50.973Z,4.47
2019-05-21T02:01:19.694Z,4.67
2019-05-21T02:03:48.505Z,5.47
2019-05-21T02:06:17.319Z,4.50
2019-05-21T02:08:46.140Z,5.10
2019-05-21T02:11:14.937Z,4.37
2019-05-21T02:13:43.656Z,4.73
2019-05-21T02:16:12.374Z,4.07
2019-05-21T02:18:41.269Z,3.97
2019-05-21T02:21:09.965Z,4.13
2019-05-21T02:23:38.692Z,4.60
2019-05-21T02:26:07.518Z,5.13
2019-05-21T02:28:36.243Z,5.07
2019-05-21T02:31:05.080Z,5.37
2019-05-21T02:33:34.518Z,4.80
2019-05-21T02:36:03.251Z,5.20
2019-05-21T02:38:31.983Z,5.83
2019-05-21T02:41:00.802Z,5.20
2019-05-21T02:43:30.200Z,5.47
2019-05-21T02:45:58.918Z,5.50
2019-05-21T02:48:27.908Z,9.67
2019-05-21T02:50:56.633Z,21.07
2019-05-21T02:53:25.368Z,12.37
2019-05-21T02:55:54.340Z,9.93
2019-05-21T02:58:23.058Z,7.67
2019-05-21T03:00:53.359Z,8.20
2019-05-21T03:03:23.875Z,7.53
2019-05-21T03:05:52.603Z,9.03
2019-05-21T03:08:21.354Z,7.70
2019-05-21T03:10:50.214Z,7.00
2019-05-21T03:13:18.938Z,7.23
2019-05-21T03:15:47.687Z,6.77
2019-05-21T03:18:16.465Z,6.37
2019-05-21T03:20:45.195Z,6.23
2019-05-21T03:23:13.935Z,5.60
2019-05-21T03:25:42.819Z,6.37
2019-05-21T03:28:11.550Z,6.80
2019-05-21T03:30:40.285Z,7.10
2019-05-21T03:33:09.320Z,6.40
2019-05-21T03:35:38.072Z,7.00
2019-05-21T03:38:06.785Z,7.13
2019-05-21T03:40:35.756Z,6.47
2019-05-21T03:43:04.459Z,6.83
2019-05-21T03:45:33.253Z,7.37
2019-05-21T03:48:02.043Z,7.00
2019-05-21T03:50:30.781Z,7.57
2019-05-21T03:52:59.490Z,6.67
2019-05-21T03:55:28.261Z,7.37
2019-05-21T03:57:56.992Z,6.53
2019-05-21T04:00:25.720Z,6.77
2019-05-21T04:02:54.781Z,7.03
2019-05-21T04:05:25.383Z,6.77
2019-05-21T04:07:54.108Z,6.67
2019-05-21T04:10:23.076Z,6.30
2019-05-21T04:13:07.676Z,6.33
2019-05-21T04:15:40.375Z,5.97
2019-05-21T04:18:13.784Z,6.00
2019-05-21T04:20:42.501Z,6.17
2019-05-21T04:23:11.359Z,5.80
2019-05-21T04:25:40.095Z,5.30
2019-05-21T04:28:08.852Z,5.27
2019-05-21T04:30:37.739Z,5.63
2019-05-21T04:33:06.484Z,5.40
2019-05-21T04:35:35.197Z,6.30
2019-05-21T04:38:03.967Z,5.37
2019-05-21T04:40:32.707Z,5.93
2019-05-21T04:43:02.394Z,6.33
2019-05-21T04:45:31.574Z,6.73
2019-05-21T04:48:00.281Z,5.97
2019-05-21T04:50:29.023Z,5.73
2019-05-21T04:52:57.808Z,5.60
2019-05-21T04:55:26.519Z,5.80
2019-05-21T04:57:55.317Z,5.47
2019-05-21T05:00:25.350Z,5.13
2019-05-21T05:02:54.076Z,4.50
2019-05-21T05:05:22.888Z,4.70
2019-05-21T05:07:51.674Z,4.73
2019-05-21T05:10:20.534Z,4.87
2019-05-21T05:12:49.249Z,4.70
2019-05-21T05:15:18.227Z,4.60
2019-05-21T05:17:46.941Z,4.20
2019-05-21T05:20:15.820Z,4.40
2019-05-21T05:22:44.796Z,4.30
2019-05-21T05:25:14.015Z,4.37
2019-05-21T05:27:42.734Z,4.50
2019-05-21T05:30:12.100Z,3.83
2019-05-21T05:32:40.823Z,4.90
2019-05-21T05:35:09.659Z,4.23
2019-05-21T05:37:44.018Z,4.47
2019-05-21T05:40:09.295Z,4.50
2019-05-21T05:42:38.027Z,4.57
2019-05-21T05:45:08.767Z,4.33
2019-05-21T05:47:37.495Z,7.37
2019-05-21T05:50:26.360Z,4.67
2019-05-21T05:52:55.240Z,6.97
2019-05-21T05:55:24.001Z,5.00
2019-05-21T05:57:52.877Z,5.10
2019-05-21T06:00:22.117Z,5.50
2019-05-21T06:02:50.855Z,6.17
2019-05-21T06:05:21.306Z,5.90
2019-05-21T06:07:59.338Z,6.23
2019-05-21T06:10:20.492Z,22.67
2019-05-21T06:12:49.354Z,15.37
2019-05-21T06:15:18.171Z,17.57
2019-05-21T06:17:46.909Z,11.17
2019-05-21T06:20:16.318Z,7.37
2019-05-21T06:22:45.039Z,5.87
2019-05-21T06:25:13.953Z,6.23
2019-05-21T06:27:42.728Z,8.57
2019-05-21T06:30:11.760Z,5.83
2019-05-21T06:32:40.472Z,5.97
2019-05-21T06:35:09.556Z,5.83
2019-05-21T06:37:38.406Z,7.93
2019-05-21T06:40:07.687Z,6.70
2019-05-21T06:42:36.476Z,6.53
2019-05-21T06:45:06.495Z,5.77
2019-05-21T06:47:35.213Z,5.67
2019-05-21T06:50:05.504Z,5.53
2019-05-21T06:52:34.214Z,3.90
2019-05-21T06:55:02.955Z,5.10
2019-05-21T06:57:31.814Z,4.80
2019-05-21T07:00:00.526Z,5.00
2019-05-21T07:02:29.251Z,9.23
2019-05-21T07:04:58.126Z,6.30
2019-05-21T07:07:26.842Z,5.63
2019-05-21T07:09:55.556Z,4.73
2019-05-21T07:12:24.672Z,5.40
2019-05-21T07:14:53.427Z,4.60
2019-05-21T07:17:22.140Z,5.43
2019-05-21T07:19:50.986Z,6.83
2019-05-21T07:22:19.707Z,4.97
2019-05-21T07:24:48.425Z,4.60
2019-05-21T07:27:17.224Z,4.57
2019-05-21T07:29:45.944Z,4.80
2019-05-21T07:32:14.740Z,4.47
2019-05-21T07:34:43.692Z,4.77
2019-05-21T07:37:12.411Z,5.83
2019-05-21T07:39:41.128Z,4.97
2019-05-21T07:42:10.020Z,14.30
2019-05-21T07:44:38.736Z,4.80
2019-05-21T07:47:07.466Z,4.57
2019-05-21T07:49:36.339Z,6.13
2019-05-21T07:52:05.061Z,6.53
2019-05-21T07:54:33.599Z,4.80
2019-05-21T07:57:02.494Z,4.40
2019-05-21T07:59:31.206Z,5.27
2019-05-21T08:01:59.923Z,4.37
2019-05-21T08:04:28.802Z,4.53
2019-05-21T08:06:57.528Z,4.87
2019-05-21T08:09:26.240Z,4.13
2019-05-21T08:11:55.020Z,6.03
2019-05-21T08:14:23.734Z,3.80
2019-05-21T08:16:52.457Z,4.93
2019-05-21T08:19:22.641Z,4.17
2019-05-21T08:21:51.458Z,4.43
2019-05-21T08:24:20.290Z,3.50
2019-05-21T08:26:49.055Z,3.17
2019-05-21T08:29:17.775Z,5.43
2019-05-21T08:31:46.503Z,2.90
2019-05-21T08:34:15.374Z,2.67
2019-05-21T08:36:44.109Z,2.53
2019-05-21T08:39:27.699Z,1.60
2019-05-21T08:41:43.521Z,2.60
2019-05-21T08:44:12.286Z,2.97
2019-05-21T08:46:41.925Z,2.97
2019-05-21T08:49:10.880Z,2.53
2019-05-21T08:51:39.606Z,3.53
2019-05-21T08:54:08.337Z,2.97
2019-05-21T08:56:37.207Z,2.07
2019-05-21T08:59:05.932Z,2.40
2019-05-21T09:01:34.656Z,2.73
2019-05-21T09:04:03.410Z,3.00
2019-05-21T09:06:32.150Z,2.10
2019-05-21T09:09:03.853Z,1.50
2019-05-21T09:11:31.706Z,1.63
2019-05-21T09:14:02.098Z,1.80
2019-05-21T09:16:30.815Z,2.00
2019-05-21T09:18:59.708Z,1.80
2019-05-21T09:21:28.453Z,1.47
2019-05-21T09:23:57.367Z,1.77
2019-05-21T09:26:27.335Z,3.00
2019-05-21T09:28:56.027Z,8.30
2019-05-21T09:31:24.765Z,2.53
2019-05-21T09:33:53.550Z,2.30
2019-05-21T09:36:25.141Z,1.90
2019-05-21T09:38:52.812Z,1.70
2019-05-21T09:41:21.754Z,1.60
2019-05-21T09:43:50.528Z,2.20
2019-05-21T09:46:19.269Z,1.73
2019-05-21T09:48:48.035Z,1.80
2019-05-21T09:51:20.104Z,2.63
2019-05-21T09:53:47.302Z,1.67
2019-05-21T09:56:34.120Z,1.70
2019-05-21T09:59:22.627Z,1.70
2019-05-21T10:01:53.079Z,1.67
2019-05-21T10:04:21.814Z,1.40
2019-05-21T10:06:50.545Z,1.90
2019-05-21T10:09:20.872Z,1.67
2019-05-21T10:11:50.115Z,4.40
2019-05-21T10:14:18.814Z,1.60
2019-05-21T10:16:47.705Z,1.80
2019-05-21T10:19:16.536Z,1.50
2019-05-21T10:21:45.249Z,1.70
2019-05-21T10:24:14.147Z,1.50
2019-05-21T10:26:42.860Z,1.37
2019-05-21T10:29:11.683Z,1.63
2019-05-21T10:31:40.456Z,1.80
2019-05-21T10:34:12.706Z,1.90
2019-05-21T10:36:39.679Z,1.52
2019-05-21T10:39:08.704Z,1.70
2019-05-21T10:41:37.431Z,1.60
2019-05-21T10:44:06.155Z,2.55
2019-05-21T10:46:35.130Z,1.57
2019-05-21T10:49:03.951Z,1.60
2019-05-21T10:51:32.674Z,2.05
2019-05-21T10:54:01.770Z,2.65
2019-05-21T10:56:46.803Z,1.80
2019-05-21T10:59:00.994Z,19.10
2019-05-21T11:01:31.420Z,1.97
2019-05-21T11:04:07.502Z,2.10
2019-05-21T11:06:36.470Z,1.90
2019-05-21T11:09:08.970Z,2.20
2019-05-21T11:11:37.686Z,2.27
2019-05-21T11:14:06.944Z,1.40
2019-05-21T11:16:35.712Z,1.77
2019-05-21T11:19:04.522Z,2.03
2019-05-21T11:21:33.279Z,1.90
2019-05-21T11:24:02.194Z,1.60
2019-05-21T11:26:31.012Z,2.43
2019-05-21T11:29:01.099Z,1.98
2019-05-21T11:31:29.836Z,2.97
2019-05-21T11:33:58.545Z,1.30
2019-05-21T11:36:27.498Z,11.27
2019-05-21T11:38:56.224Z,1.50
2019-05-21T11:41:24.936Z,3.13
2019-05-21T11:43:53.694Z,1.60
2019-05-21T11:46:22.421Z,3.10
2019-05-21T11:48:51.169Z,1.50
2019-05-21T11:51:20.170Z,1.40
2019-05-21T11:53:48.897Z,2.23
2019-05-21T11:56:17.620Z,1.20
2019-05-21T11:58:46.398Z,1.40
2019-05-21T12:01:15.165Z,1.50
2019-05-21T12:03:44.066Z,1.53
2019-05-21T12:06:12.823Z,1.43
2019-05-21T12:08:55.521Z,1.50
2019-05-21T12:11:12.036Z,1.60
2019-05-21T12:13:40.806Z,1.23
2019-05-21T12:16:09.529Z,4.87
2019-05-21T12:18:38.245Z,1.87
2019-05-21T12:21:07.056Z,1.40
2019-05-21T12:23:35.779Z,4.07
2019-05-21T12:26:04.608Z,1.63
2019-05-21T12:28:33.449Z,1.73
2019-05-21T12:31:02.163Z,1.60
2019-05-21T12:33:34.713Z,4.83
2019-05-21T12:36:01.383Z,1.80
2019-05-21T12:38:30.112Z,1.93
2019-05-21T12:40:58.823Z,1.60
2019-05-21T12:43:27.612Z,2.70
2019-05-21T12:45:56.351Z,4.10
2019-05-21T12:48:25.063Z,2.03
2019-05-21T12:50:54.150Z,6.67
2019-05-21T12:53:22.868Z,1.97
2019-05-21T12:55:51.676Z,2.70
2019-05-21T12:58:20.499Z,3.70
2019-05-21T13:00:49.215Z,8.93
2019-05-21T13:03:17.945Z,3.97
2019-05-21T13:05:46.954Z,1.47
2019-05-21T13:08:15.684Z,9.20
2019-05-21T13:10:45.254Z,4.30
2019-05-21T13:13:14.165Z,1.57
2019-05-21T13:15:42.892Z,3.00
2019-05-21T13:18:11.596Z,1.60
2019-05-21T13:20:40.363Z,2.57
2019-05-21T13:23:09.087Z,2.67
2019-05-21T13:25:37.795Z,2.33
2019-05-21T13:28:06.767Z,1.90
2019-05-21T13:30:35.504Z,3.07
2019-05-21T13:33:04.325Z,2.70
2019-05-21T13:35:33.145Z,5.20
2019-05-21T13:38:03.339Z,10.53
2019-05-21T13:40:32.573Z,2.83
2019-05-21T13:43:01.516Z,1.33
2019-05-21T13:45:30.238Z,2.63
2019-05-21T13:47:58.980Z,1.53
2019-05-21T13:50:27.779Z,1.47
2019-05-21T13:52:56.596Z,2.07
2019-05-21T13:55:25.325Z,1.40
2019-05-21T13:57:55.566Z,1.63
2019-05-21T14:00:35.499Z,1.40
2019-05-21T14:03:04.458Z,1.57
2019-05-21T14:05:33.166Z,1.77
2019-05-21T14:08:01.888Z,1.63
2019-05-21T14:10:31.043Z,1.40
2019-05-21T14:13:01.220Z,1.80
2019-05-21T14:15:29.917Z,1.60
2019-05-21T14:18:01.950Z,1.40
2019-05-21T14:20:30.680Z,1.20
2019-05-21T14:22:59.409Z,1.20
2019-05-21T14:25:28.383Z,1.13
2019-05-21T14:27:57.091Z,1.37
2019-05-21T14:30:25.812Z,1.20
2019-05-21T14:32:57.657Z,1.67
2019-05-21T14:35:26.369Z,1.63
2019-05-21T14:37:55.088Z,1.20
2019-05-21T14:40:31.649Z,1.80
2019-05-21T14:43:00.136Z,1.50
2019-05-21T14:45:29.041Z,1.10
2019-05-21T14:47:56.330Z,1.63
2019-05-21T14:50:25.050Z,1.40
2019-05-21T14:52:53.769Z,2.23
2019-05-21T14:55:22.610Z,3.10
2019-05-21T14:57:51.368Z,2.00
2019-05-21T15:00:24.907Z,1.37
2019-05-21T15:02:53.755Z,1.40
2019-05-21T15:05:22.479Z,1.23
2019-05-21T15:07:51.365Z,1.67
2019-05-21T15:10:21.677Z,1.50
2019-05-21T15:12:50.406Z,1.97
2019-05-21T15:15:19.138Z,1.30
2019-05-21T15:17:47.891Z,1.60
2019-05-21T15:20:31.287Z,2.00
2019-05-21T15:23:00.083Z,1.40
2019-05-21T15:25:28.806Z,1.10
2019-05-21T15:27:57.527Z,1.40
2019-05-21T15:30:26.390Z,1.70
2019-05-21T15:32:55.119Z,1.70
2019-05-21T15:35:23.832Z,1.63
2019-05-21T15:37:52.683Z,1.60
2019-05-21T15:40:22.137Z,1.47
2019-05-21T15:42:53.147Z,1.70
2019-05-21T15:45:21.753Z,1.90
2019-05-21T15:47:50.464Z,1.27
2019-05-21T15:50:19.321Z,1.40
2019-05-21T15:52:48.127Z,1.40
2019-05-21T15:55:18.352Z,1.30
2019-05-21T15:57:47.080Z,1.20
2019-05-21T16:00:16.635Z,1.40
2019-05-21T16:02:45.353Z,1.50
2019-05-21T16:05:14.282Z,1.40
2019-05-21T16:07:43.141Z,1.20
2019-05-21T16:10:12.523Z,1.20
2019-05-21T16:12:41.259Z,1.10
2019-05-21T16:15:10.527Z,1.47
2019-05-21T16:17:40.714Z,1.03
2019-05-21T16:20:10.337Z,1.37
2019-05-21T16:22:39.289Z,1.00
2019-05-21T16:25:08.908Z,1.10
2019-05-21T16:27:37.629Z,0.90
2019-05-21T16:30:08.386Z,1.00
2019-05-21T16:32:37.303Z,0.80
2019-05-21T16:35:09.457Z,0.90
2019-05-21T16:37:38.415Z,1.00
2019-05-21T16:40:08.234Z,0.70
2019-05-21T16:42:37.043Z,0.90
2019-05-21T16:45:07.419Z,1.17
2019-05-21T16:47:45.920Z,0.90
2019-05-21T16:50:08.730Z,1.00
2019-05-21T16:52:38.013Z,1.63
2019-05-21T16:55:08.016Z,1.10
2019-05-21T16:57:36.736Z,1.00
2019-05-21T17:00:08.387Z,0.70
2019-05-21T17:02:37.189Z,1.10
2019-05-21T17:05:07.203Z,1.03
2019-05-21T17:07:36.058Z,1.57
2019-05-21T17:10:06.745Z,0.87
2019-05-21T17:12:35.714Z,1.13
2019-05-21T17:15:09.399Z,0.97
2019-05-21T17:17:38.115Z,0.77
2019-05-21T17:20:10.227Z,0.90
2019-05-21T17:22:38.999Z,0.80
2019-05-21T17:25:08.424Z,0.70
2019-05-21T17:27:37.243Z,0.90
2019-05-21T17:30:08.699Z,0.80
2019-05-21T17:32:37.630Z,1.00
2019-05-21T17:35:07.651Z,0.83
2019-05-21T17:37:36.504Z,0.80
2019-05-21T17:40:06.602Z,8.13
2019-05-21T17:42:35.323Z,1.03
2019-05-21T17:45:08.763Z,1.57
2019-05-21T17:47:37.593Z,1.10
2019-05-21T17:50:07.211Z,0.87
2019-05-21T17:52:36.108Z,0.80
2019-05-21T17:55:06.325Z,0.73
2019-05-21T17:57:35.657Z,0.60
2019-05-21T18:00:07.918Z,0.80
2019-05-21T18:02:36.651Z,0.90
2019-05-21T18:05:07.560Z,1.00
2019-05-21T18:07:37.416Z,0.90
2019-05-21T18:10:09.365Z,0.80
2019-05-21T18:12:39.127Z,0.77
2019-05-21T18:15:10.414Z,1.00
2019-05-21T18:17:40.567Z,0.80
2019-05-21T18:20:10.660Z,0.70
2019-05-21T18:22:40.439Z,0.90
2019-05-21T18:25:09.459Z,1.00
2019-05-21T18:27:38.638Z,0.87
2019-05-21T18:30:09.160Z,1.10
2019-05-21T18:32:39.452Z,1.00
2019-05-21T18:35:08.975Z,0.93
2019-05-21T18:37:39.254Z,0.90
2019-05-21T18:40:10.175Z,1.57
2019-05-21T18:42:38.975Z,1.10
2019-05-21T18:45:08.860Z,1.40
2019-05-21T18:47:37.584Z,1.13
2019-05-21T18:50:07.805Z,1.20
2019-05-21T18:52:36.782Z,1.20
2019-05-21T18:55:07.108Z,1.00
2019-05-21T18:57:36.231Z,0.83
2019-05-21T19:00:07.162Z,1.10
2019-05-21T19:02:35.884Z,1.10
2019-05-21T19:05:07.008Z,1.30
2019-05-21T19:07:36.314Z,1.30
2019-05-21T19:10:07.729Z,2.03
2019-05-21T19:12:38.422Z,1.57
2019-05-21T19:15:08.231Z,1.40
2019-05-21T19:17:36.996Z,1.53
2019-05-21T19:20:09.540Z,1.80
2019-05-21T19:22:38.303Z,3.40
2019-05-21T19:25:08.128Z,2.13
2019-05-21T19:27:36.845Z,1.53
2019-05-21T19:30:10.058Z,1.17
2019-05-21T19:32:38.898Z,1.33
2019-05-21T19:35:08.301Z,1.70
2019-05-21T19:37:37.095Z,1.40
2019-05-21T19:40:09.040Z,1.90
2019-05-21T19:42:53.886Z,1.80
2019-05-21T19:45:10.689Z,2.60
2019-05-21T19:47:39.456Z,3.43
2019-05-21T19:50:08.485Z,1.83
2019-05-21T19:52:37.336Z,3.07
2019-05-21T19:55:07.530Z,3.43
2019-05-21T19:57:36.857Z,2.17
2019-05-21T20:00:07.670Z,2.20
2019-05-21T20:02:36.689Z,1.70
2019-05-21T20:05:07.906Z,1.90
2019-05-21T20:07:36.893Z,2.00
2019-05-21T20:10:07.221Z,1.90
2019-05-21T20:12:36.537Z,1.70
2019-05-21T20:15:07.281Z,1.50
2019-05-21T20:17:36.806Z,1.80
2019-05-21T20:20:08.306Z,1.80
2019-05-21T20:22:37.769Z,1.63
2019-05-21T20:25:07.596Z,1.60
2019-05-21T20:27:37.107Z,1.83
2019-05-21T20:30:12.945Z,1.93
2019-05-21T20:32:40.294Z,2.10
2019-05-21T20:35:10.881Z,1.93
2019-05-21T20:37:41.446Z,2.37
2019-05-21T20:40:12.436Z,2.17
2019-05-21T20:42:41.663Z,2.40
2019-05-21T20:45:13.099Z,2.33
2019-05-21T20:47:43.784Z,2.43
2019-05-21T20:50:14.973Z,2.63
2019-05-21T20:52:45.684Z,2.30
2019-05-21T20:55:17.282Z,2.40
2019-05-21T20:57:46.091Z,2.50
2019-05-21T21:00:18.224Z,2.60
2019-05-21T21:02:47.247Z,2.50
2019-05-21T21:05:16.769Z,1.97
2019-05-21T21:07:45.647Z,2.50
2019-05-21T21:10:14.963Z,2.30
2019-05-21T21:12:44.786Z,2.90
2019-05-21T21:15:14.874Z,2.90
2019-05-21T21:17:44.192Z,2.50
2019-05-21T21:20:13.307Z,2.93
2019-05-21T21:22:42.201Z,2.33
2019-05-21T21:25:11.922Z,2.57
2019-05-21T21:27:41.357Z,2.60
2019-05-21T21:30:11.098Z,2.77
2019-05-21T21:32:40.037Z,3.17
2019-05-21T21:35:10.940Z,3.07
2019-05-21T21:37:40.198Z,3.20
2019-05-21T21:40:11.483Z,3.63
2019-05-21T21:42:41.603Z,3.10
2019-05-21T21:45:10.796Z,3.07
2019-05-21T21:47:40.813Z,2.67
2019-05-21T21:50:10.541Z,2.43
2019-05-21T21:52:39.728Z,2.60
2019-05-21T21:55:08.845Z,2.57
2019-05-21T21:57:37.563Z,2.13
2019-05-21T22:00:50.157Z,2.43
2019-05-21T22:03:20.932Z,2.40
2019-05-21T22:05:51.216Z,2.90
2019-05-21T22:08:20.061Z,2.87
2019-05-21T22:10:49.135Z,2.70
2019-05-21T22:13:17.911Z,2.83
2019-05-21T22:15:46.716Z,2.33
2019-05-21T22:18:16.101Z,2.60
2019-05-21T22:20:45.071Z,2.50
2019-05-21T22:23:13.994Z,2.27
2019-05-21T22:25:43.025Z,2.33
2019-05-21T22:28:11.898Z,2.40
2019-05-21T22:30:41.023Z,2.90
2019-05-21T22:33:09.798Z,2.83
2019-05-21T22:35:38.467Z,2.20
2019-05-21T22:38:07.222Z,2.30
2019-05-21T22:40:35.994Z,2.20
2019-05-21T22:43:04.673Z,2.43
2019-05-21T22:45:33.527Z,2.20
2019-05-21T22:48:02.347Z,1.97
2019-05-21T22:50:31.371Z,2.27
2019-05-21T22:53:00.159Z,2.47
2019-05-21T22:55:28.887Z,2.60
2019-05-21T22:57:57.995Z,2.43
2019-05-21T23:00:26.876Z,2.70
2019-05-21T23:02:55.926Z,3.27
2019-05-21T23:05:24.620Z,3.13
2019-05-21T23:07:53.383Z,3.13
2019-05-21T23:10:23.127Z,3.73
2019-05-21T23:12:52.110Z,3.20
2019-05-21T23:15:25.529Z,3.23
2019-05-21T23:17:51.637Z,2.97
2019-05-21T23:20:21.454Z,2.80
2019-05-21T23:22:52.295Z,2.60
2019-05-21T23:25:21.006Z,2.80
2019-05-21T23:27:50.100Z,2.90
2019-05-21T23:30:19.661Z,2.57
2019-05-21T23:32:48.384Z,2.40
2019-05-21T23:35:17.299Z,2.17
2019-05-21T23:37:47.698Z,2.37
2019-05-21T23:40:17.593Z,1.90
2019-05-21T23:42:47.212Z,2.20
2019-05-21T23:45:16.800Z,2.10
2019-05-21T23:47:45.511Z,2.47
2019-05-21T23:50:15.347Z,2.03
2019-05-21T23:52:45.239Z,1.90
2019-05-21T23:55:15.058Z,2.30
2019-05-21T23:57:44.980Z,2.20
